sensor_id;sensor_type;location;lat;lon;timestamp;P1;durP1;ratioP1;P2;durP2;ratioP2
10090;SDS011;5084;51.386;6.778;2023-02-28T00:01:18;4.03;;;3.63;;
10090;SDS011;5084;51.386;6.778;2023-02-28T00:03:45;3.20;;;2.90;;
10090;SDS011;5084;51.386;6.778;2023-02-28T00:06:11;4.57;;;3.40;;
10090;SDS011;5084;51.386;6.778;2023-02-28T00:08:37;3.47;;;2.90;;
10090;SDS011;5084;51.386;6.778;2023-02-28T00:11:09;3.60;;;2.80;;
10090;SDS011;5084;51.386;6.778;2023-02-28T00:13:40;3.03;;;2.57;;
10090;SDS011;5084;51.386;6.778;2023-02-28T00:16:08;3.20;;;2.90;;
10090;SDS011;5084;51.386;6.778;2023-02-28T00:18:35;3.30;;;2.97;;
10090;SDS011;5084;51.386;6.778;2023-02-28T00:21:01;2.57;;;2.37;;
10090;SDS011;5084;51.386;6.778;2023-02-28T00:23:27;4.30;;;3.33;;
10090;SDS011;5084;51.386;6.778;2023-02-28T00:25:54;3.50;;;2.90;;
10090;SDS011;5084;51.386;6.778;2023-02-28T00:28:20;3.57;;;3.00;;
10090;SDS011;5084;51.386;6.778;2023-02-28T00:30:46;3.30;;;3.00;;
10090;SDS011;5084;51.386;6.778;2023-02-28T00:33:12;2.90;;;2.60;;
10090;SDS011;5084;51.386;6.778;2023-02-28T00:35:38;2.90;;;2.50;;
10090;SDS011;5084;51.386;6.778;2023-02-28T00:38:05;4.47;;;3.10;;
10090;SDS011;5084;51.386;6.778;2023-02-28T00:40:31;4.20;;;2.97;;
10090;SDS011;5084;51.386;6.778;2023-02-28T00:42:57;3.33;;;2.90;;
10090;SDS011;5084;51.386;6.778;2023-02-28T00:45:23;4.20;;;2.83;;
10090;SDS011;5084;51.386;6.778;2023-02-28T00:47:49;3.83;;;3.10;;
10090;SDS011;5084;51.386;6.778;2023-02-28T00:50:19;4.03;;;3.13;;
10090;SDS011;5084;51.386;6.778;2023-02-28T00:52:45;3.73;;;2.97;;
10090;SDS011;5084;51.386;6.778;2023-02-28T00:55:11;6.27;;;3.17;;
10090;SDS011;5084;51.386;6.778;2023-02-28T00:57:37;3.20;;;2.90;;
10090;SDS011;5084;51.386;6.778;2023-02-28T01:00:04;3.90;;;2.67;;
10090;SDS011;5084;51.386;6.778;2023-02-28T01:02:30;3.10;;;2.70;;
10090;SDS011;5084;51.386;6.778;2023-02-28T01:04:56;5.53;;;3.03;;
10090;SDS011;5084;51.386;6.778;2023-02-28T01:07:22;3.63;;;2.93;;
10090;SDS011;5084;51.386;6.778;2023-02-28T01:09:48;3.90;;;3.03;;
10090;SDS011;5084;51.386;6.778;2023-02-28T01:12:15;3.30;;;3.00;;
10090;SDS011;5084;51.386;6.778;2023-02-28T01:14:41;5.57;;;3.50;;
10090;SDS011;5084;51.386;6.778;2023-02-28T01:17:07;3.37;;;3.07;;
10090;SDS011;5084;51.386;6.778;2023-02-28T01:19:33;3.87;;;3.30;;
10090;SDS011;5084;51.386;6.778;2023-02-28T01:22:00;3.57;;;2.73;;
10090;SDS011;5084;51.386;6.778;2023-02-28T01:24:27;3.93;;;2.60;;
10090;SDS011;5084;51.386;6.778;2023-02-28T01:26:53;3.40;;;3.10;;
10090;SDS011;5084;51.386;6.778;2023-02-28T01:29:19;3.30;;;2.93;;
10090;SDS011;5084;51.386;6.778;2023-02-28T01:31:45;3.00;;;2.70;;
10090;SDS011;5084;51.386;6.778;2023-02-28T01:34:11;4.30;;;3.40;;
10090;SDS011;5084;51.386;6.778;2023-02-28T01:36:37;5.07;;;3.20;;
10090;SDS011;5084;51.386;6.778;2023-02-28T01:39:03;3.70;;;3.20;;
10090;SDS011;5084;51.386;6.778;2023-02-28T01:41:30;3.50;;;3.00;;
10090;SDS011;5084;51.386;6.778;2023-02-28T01:43:57;4.27;;;3.27;;
10090;SDS011;5084;51.386;6.778;2023-02-28T01:46:24;4.20;;;3.00;;
10090;SDS011;5084;51.386;6.778;2023-02-28T01:51:25;4.00;;;3.47;;
10090;SDS011;5084;51.386;6.778;2023-02-28T01:53:53;3.70;;;2.83;;
10090;SDS011;5084;51.386;6.778;2023-02-28T01:56:20;3.63;;;2.43;;
10090;SDS011;5084;51.386;6.778;2023-02-28T01:58:51;4.93;;;3.33;;
10090;SDS011;5084;51.386;6.778;2023-02-28T02:01:17;4.43;;;3.10;;
10090;SDS011;5084;51.386;6.778;2023-02-28T02:03:50;5.40;;;3.10;;
10090;SDS011;5084;51.386;6.778;2023-02-28T02:06:21;3.50;;;2.60;;
10090;SDS011;5084;51.386;6.778;2023-02-28T02:08:47;3.40;;;2.73;;
10090;SDS011;5084;51.386;6.778;2023-02-28T02:11:13;3.90;;;2.73;;
10090;SDS011;5084;51.386;6.778;2023-02-28T02:19:15;4.53;;;2.87;;
10090;SDS011;5084;51.386;6.778;2023-02-28T02:29:41;3.37;;;2.87;;
10090;SDS011;5084;51.386;6.778;2023-02-28T02:34:57;3.07;;;2.73;;
10090;SDS011;5084;51.386;6.778;2023-02-28T02:37:27;3.20;;;2.90;;
10090;SDS011;5084;51.386;6.778;2023-02-28T02:42:27;3.47;;;2.53;;
10090;SDS011;5084;51.386;6.778;2023-02-28T02:45:03;3.33;;;3.03;;
10090;SDS011;5084;51.386;6.778;2023-02-28T02:47:31;3.40;;;2.67;;
10090;SDS011;5084;51.386;6.778;2023-02-28T02:49:58;2.93;;;2.70;;
10090;SDS011;5084;51.386;6.778;2023-02-28T02:52:30;2.93;;;2.70;;
10090;SDS011;5084;51.386;6.778;2023-02-28T02:54:57;4.77;;;2.80;;
10090;SDS011;5084;51.386;6.778;2023-02-28T02:57:27;4.60;;;3.23;;
10090;SDS011;5084;51.386;6.778;2023-02-28T02:59:55;2.70;;;2.47;;
10090;SDS011;5084;51.386;6.778;2023-02-28T03:02:22;3.30;;;2.87;;
10090;SDS011;5084;51.386;6.778;2023-02-28T03:04:56;3.60;;;2.67;;
10090;SDS011;5084;51.386;6.778;2023-02-28T03:07:25;4.93;;;2.70;;
10090;SDS011;5084;51.386;6.778;2023-02-28T03:09:52;3.50;;;2.67;;
10090;SDS011;5084;51.386;6.778;2023-02-28T03:12:18;4.47;;;2.90;;
10090;SDS011;5084;51.386;6.778;2023-02-28T03:14:55;3.23;;;2.97;;
10090;SDS011;5084;51.386;6.778;2023-02-28T03:20:04;3.63;;;2.90;;
10090;SDS011;5084;51.386;6.778;2023-02-28T03:22:51;3.37;;;2.30;;
10090;SDS011;5084;51.386;6.778;2023-02-28T03:28:07;3.93;;;2.63;;
10090;SDS011;5084;51.386;6.778;2023-02-28T03:33:02;3.97;;;2.40;;
10090;SDS011;5084;51.386;6.778;2023-02-28T03:35:34;4.60;;;3.20;;
10090;SDS011;5084;51.386;6.778;2023-02-28T03:38:09;2.87;;;2.40;;
10090;SDS011;5084;51.386;6.778;2023-02-28T03:40:39;3.00;;;2.07;;
10090;SDS011;5084;51.386;6.778;2023-02-28T03:43:08;2.53;;;2.30;;
10090;SDS011;5084;51.386;6.778;2023-02-28T03:45:36;3.40;;;2.57;;
10090;SDS011;5084;51.386;6.778;2023-02-28T03:50:34;2.53;;;2.20;;
10090;SDS011;5084;51.386;6.778;2023-02-28T03:53:03;3.27;;;2.53;;
10090;SDS011;5084;51.386;6.778;2023-02-28T03:55:32;2.63;;;2.33;;
10090;SDS011;5084;51.386;6.778;2023-02-28T03:58:08;2.73;;;2.40;;
10090;SDS011;5084;51.386;6.778;2023-02-28T04:00:38;3.53;;;2.33;;
10090;SDS011;5084;51.386;6.778;2023-02-28T04:03:04;3.73;;;3.07;;
10090;SDS011;5084;51.386;6.778;2023-02-28T04:05:30;2.97;;;2.53;;
10090;SDS011;5084;51.386;6.778;2023-02-28T04:08:03;3.10;;;2.47;;
10090;SDS011;5084;51.386;6.778;2023-02-28T04:10:29;4.13;;;2.80;;
10090;SDS011;5084;51.386;6.778;2023-02-28T04:12:55;2.43;;;2.23;;
10090;SDS011;5084;51.386;6.778;2023-02-28T04:15:21;2.57;;;2.37;;
10090;SDS011;5084;51.386;6.778;2023-02-28T04:17:49;3.67;;;2.60;;
10090;SDS011;5084;51.386;6.778;2023-02-28T04:20:15;3.00;;;2.60;;
10090;SDS011;5084;51.386;6.778;2023-02-28T04:22:41;3.63;;;2.37;;
10090;SDS011;5084;51.386;6.778;2023-02-28T04:25:07;3.33;;;2.40;;
10090;SDS011;5084;51.386;6.778;2023-02-28T04:27:34;3.13;;;2.40;;
10090;SDS011;5084;51.386;6.778;2023-02-28T04:30:00;3.53;;;3.00;;
10090;SDS011;5084;51.386;6.778;2023-02-28T04:32:26;2.57;;;2.00;;
10090;SDS011;5084;51.386;6.778;2023-02-28T04:34:52;3.33;;;2.50;;
10090;SDS011;5084;51.386;6.778;2023-02-28T04:37:18;2.47;;;2.27;;
10090;SDS011;5084;51.386;6.778;2023-02-28T04:39:44;3.30;;;2.43;;
10090;SDS011;5084;51.386;6.778;2023-02-28T04:42:10;2.87;;;2.13;;
10090;SDS011;5084;51.386;6.778;2023-02-28T04:44:37;4.67;;;2.67;;
10090;SDS011;5084;51.386;6.778;2023-02-28T04:47:03;2.40;;;2.20;;
10090;SDS011;5084;51.386;6.778;2023-02-28T04:49:29;3.73;;;2.33;;
10090;SDS011;5084;51.386;6.778;2023-02-28T04:51:55;2.87;;;2.50;;
10090;SDS011;5084;51.386;6.778;2023-02-28T04:54:21;3.17;;;2.20;;
10090;SDS011;5084;51.386;6.778;2023-02-28T04:56:47;2.37;;;2.13;;
10090;SDS011;5084;51.386;6.778;2023-02-28T04:59:14;5.57;;;2.87;;
10090;SDS011;5084;51.386;6.778;2023-02-28T05:01:40;2.53;;;2.30;;
10090;SDS011;5084;51.386;6.778;2023-02-28T05:04:10;2.80;;;2.53;;
10090;SDS011;5084;51.386;6.778;2023-02-28T05:06:36;5.20;;;2.27;;
10090;SDS011;5084;51.386;6.778;2023-02-28T05:09:02;3.03;;;2.30;;
10090;SDS011;5084;51.386;6.778;2023-02-28T05:11:30;2.80;;;1.97;;
10090;SDS011;5084;51.386;6.778;2023-02-28T05:14:00;4.13;;;2.20;;
10090;SDS011;5084;51.386;6.778;2023-02-28T05:16:26;2.97;;;2.30;;
10090;SDS011;5084;51.386;6.778;2023-02-28T05:18:52;4.97;;;2.80;;
10090;SDS011;5084;51.386;6.778;2023-02-28T05:21:23;4.30;;;2.77;;
10090;SDS011;5084;51.386;6.778;2023-02-28T05:23:49;2.30;;;2.00;;
10090;SDS011;5084;51.386;6.778;2023-02-28T05:26:15;2.57;;;2.10;;
10090;SDS011;5084;51.386;6.778;2023-02-28T05:28:41;3.67;;;2.20;;
10090;SDS011;5084;51.386;6.778;2023-02-28T05:31:10;2.83;;;2.13;;
10090;SDS011;5084;51.386;6.778;2023-02-28T05:33:36;2.80;;;2.07;;
10090;SDS011;5084;51.386;6.778;2023-02-28T05:36:02;2.43;;;1.83;;
10090;SDS011;5084;51.386;6.778;2023-02-28T05:38:28;2.40;;;1.70;;
10090;SDS011;5084;51.386;6.778;2023-02-28T05:40:54;3.30;;;2.17;;
10090;SDS011;5084;51.386;6.778;2023-02-28T05:43:21;2.40;;;2.00;;
10090;SDS011;5084;51.386;6.778;2023-02-28T05:45:47;2.50;;;2.23;;
10090;SDS011;5084;51.386;6.778;2023-02-28T05:48:13;1.90;;;1.80;;
10090;SDS011;5084;51.386;6.778;2023-02-28T05:50:39;4.83;;;2.60;;
10090;SDS011;5084;51.386;6.778;2023-02-28T05:53:05;2.73;;;2.00;;
10090;SDS011;5084;51.386;6.778;2023-02-28T05:55:32;2.17;;;1.97;;
10090;SDS011;5084;51.386;6.778;2023-02-28T05:57:58;4.33;;;2.43;;
10090;SDS011;5084;51.386;6.778;2023-02-28T06:00:24;2.70;;;1.90;;
10090;SDS011;5084;51.386;6.778;2023-02-28T06:02:50;1.87;;;1.77;;
10090;SDS011;5084;51.386;6.778;2023-02-28T06:05:18;2.93;;;2.17;;
10090;SDS011;5084;51.386;6.778;2023-02-28T06:07:45;2.40;;;2.20;;
10090;SDS011;5084;51.386;6.778;2023-02-28T06:10:11;2.00;;;1.70;;
10090;SDS011;5084;51.386;6.778;2023-02-28T06:12:38;2.70;;;2.27;;
10090;SDS011;5084;51.386;6.778;2023-02-28T06:15:04;2.43;;;2.20;;
10090;SDS011;5084;51.386;6.778;2023-02-28T06:17:30;2.20;;;2.00;;
10090;SDS011;5084;51.386;6.778;2023-02-28T06:19:56;2.30;;;2.10;;
10090;SDS011;5084;51.386;6.778;2023-02-28T06:22:22;2.43;;;1.90;;
10090;SDS011;5084;51.386;6.778;2023-02-28T06:24:48;2.63;;;2.07;;
10090;SDS011;5084;51.386;6.778;2023-02-28T06:27:14;3.40;;;2.37;;
10090;SDS011;5084;51.386;6.778;2023-02-28T06:29:40;2.07;;;1.87;;
10090;SDS011;5084;51.386;6.778;2023-02-28T06:32:07;2.40;;;2.13;;
10090;SDS011;5084;51.386;6.778;2023-02-28T06:34:33;2.27;;;2.07;;
10090;SDS011;5084;51.386;6.778;2023-02-28T06:36:59;2.53;;;2.10;;
10090;SDS011;5084;51.386;6.778;2023-02-28T06:39:27;2.73;;;2.20;;
10090;SDS011;5084;51.386;6.778;2023-02-28T06:41:53;2.53;;;2.13;;
10090;SDS011;5084;51.386;6.778;2023-02-28T06:44:19;3.73;;;2.57;;
10090;SDS011;5084;51.386;6.778;2023-02-28T06:46:45;3.03;;;2.50;;
10090;SDS011;5084;51.386;6.778;2023-02-28T06:49:12;2.27;;;1.70;;
10090;SDS011;5084;51.386;6.778;2023-02-28T06:51:40;2.50;;;1.90;;
10090;SDS011;5084;51.386;6.778;2023-02-28T06:54:07;2.60;;;2.33;;
10090;SDS011;5084;51.386;6.778;2023-02-28T06:56:34;3.10;;;2.27;;
10090;SDS011;5084;51.386;6.778;2023-02-28T06:59:00;3.60;;;2.43;;
10090;SDS011;5084;51.386;6.778;2023-02-28T07:01:26;2.20;;;2.00;;
10090;SDS011;5084;51.386;6.778;2023-02-28T07:03:53;3.00;;;2.43;;
10090;SDS011;5084;51.386;6.778;2023-02-28T07:06:20;3.10;;;2.40;;
10090;SDS011;5084;51.386;6.778;2023-02-28T07:08:47;4.50;;;1.80;;
10090;SDS011;5084;51.386;6.778;2023-02-28T07:11:14;2.73;;;2.37;;
10090;SDS011;5084;51.386;6.778;2023-02-28T07:13:40;2.70;;;1.87;;
10090;SDS011;5084;51.386;6.778;2023-02-28T07:16:07;2.73;;;2.17;;
10090;SDS011;5084;51.386;6.778;2023-02-28T07:18:34;5.83;;;2.50;;
10090;SDS011;5084;51.386;6.778;2023-02-28T07:21:03;3.47;;;2.07;;
10090;SDS011;5084;51.386;6.778;2023-02-28T07:23:30;3.50;;;2.23;;
10090;SDS011;5084;51.386;6.778;2023-02-28T07:25:56;2.27;;;2.07;;
10090;SDS011;5084;51.386;6.778;2023-02-28T07:28:22;2.07;;;1.83;;
10090;SDS011;5084;51.386;6.778;2023-02-28T07:30:48;2.37;;;2.17;;
10090;SDS011;5084;51.386;6.778;2023-02-28T07:33:14;2.50;;;2.30;;
10090;SDS011;5084;51.386;6.778;2023-02-28T07:35:41;3.63;;;2.00;;
10090;SDS011;5084;51.386;6.778;2023-02-28T07:38:07;2.97;;;2.10;;
10090;SDS011;5084;51.386;6.778;2023-02-28T07:40:33;3.70;;;2.40;;
10090;SDS011;5084;51.386;6.778;2023-02-28T07:43:00;3.23;;;2.60;;
10090;SDS011;5084;51.386;6.778;2023-02-28T07:45:27;2.60;;;2.00;;
10090;SDS011;5084;51.386;6.778;2023-02-28T07:47:59;2.60;;;2.40;;
10090;SDS011;5084;51.386;6.778;2023-02-28T07:50:25;2.30;;;2.10;;
10090;SDS011;5084;51.386;6.778;2023-02-28T07:52:54;2.23;;;2.03;;
10090;SDS011;5084;51.386;6.778;2023-02-28T07:55:20;2.10;;;1.90;;
10090;SDS011;5084;51.386;6.778;2023-02-28T07:57:46;2.00;;;1.87;;
10090;SDS011;5084;51.386;6.778;2023-02-28T08:00:12;2.20;;;2.00;;
10090;SDS011;5084;51.386;6.778;2023-02-28T08:02:38;2.27;;;1.87;;
10090;SDS011;5084;51.386;6.778;2023-02-28T08:05:05;1.87;;;1.70;;
10090;SDS011;5084;51.386;6.778;2023-02-28T08:07:31;4.13;;;2.10;;
10090;SDS011;5084;51.386;6.778;2023-02-28T08:09:58;2.07;;;1.87;;
10090;SDS011;5084;51.386;6.778;2023-02-28T08:12:24;2.33;;;1.87;;
10090;SDS011;5084;51.386;6.778;2023-02-28T08:14:50;2.30;;;2.07;;
10090;SDS011;5084;51.386;6.778;2023-02-28T08:17:16;2.30;;;1.63;;
10090;SDS011;5084;51.386;6.778;2023-02-28T08:19:44;1.87;;;1.73;;
10090;SDS011;5084;51.386;6.778;2023-02-28T08:22:11;4.17;;;2.47;;
10090;SDS011;5084;51.386;6.778;2023-02-28T08:24:37;2.60;;;1.77;;
10090;SDS011;5084;51.386;6.778;2023-02-28T08:27:03;3.37;;;1.77;;
10090;SDS011;5084;51.386;6.778;2023-02-28T08:29:29;1.93;;;1.77;;
10090;SDS011;5084;51.386;6.778;2023-02-28T08:31:55;3.07;;;2.13;;
10090;SDS011;5084;51.386;6.778;2023-02-28T08:34:21;1.87;;;1.67;;
10090;SDS011;5084;51.386;6.778;2023-02-28T08:36:48;3.23;;;1.87;;
10090;SDS011;5084;51.386;6.778;2023-02-28T08:39:14;2.07;;;1.73;;
10090;SDS011;5084;51.386;6.778;2023-02-28T08:41:41;4.33;;;2.50;;
10090;SDS011;5084;51.386;6.778;2023-02-28T08:44:07;2.77;;;1.80;;
10090;SDS011;5084;51.386;6.778;2023-02-28T08:46:33;2.40;;;2.20;;
10090;SDS011;5084;51.386;6.778;2023-02-28T08:48:59;2.53;;;2.07;;
10090;SDS011;5084;51.386;6.778;2023-02-28T08:51:27;2.90;;;2.10;;
10090;SDS011;5084;51.386;6.778;2023-02-28T08:53:54;1.87;;;1.67;;
10090;SDS011;5084;51.386;6.778;2023-02-28T08:56:20;2.87;;;1.90;;
10090;SDS011;5084;51.386;6.778;2023-02-28T08:58:47;2.70;;;1.97;;
10090;SDS011;5084;51.386;6.778;2023-02-28T09:01:14;2.83;;;1.80;;
10090;SDS011;5084;51.386;6.778;2023-02-28T09:03:40;2.13;;;1.93;;
10090;SDS011;5084;51.386;6.778;2023-02-28T09:06:07;2.53;;;2.00;;
10090;SDS011;5084;51.386;6.778;2023-02-28T09:08:33;2.33;;;1.80;;
10090;SDS011;5084;51.386;6.778;2023-02-28T09:10:59;3.27;;;2.00;;
10090;SDS011;5084;51.386;6.778;2023-02-28T09:13:26;2.07;;;1.87;;
10090;SDS011;5084;51.386;6.778;2023-02-28T09:15:53;2.10;;;1.87;;
10090;SDS011;5084;51.386;6.778;2023-02-28T09:18:19;2.60;;;2.23;;
10090;SDS011;5084;51.386;6.778;2023-02-28T09:20:45;1.97;;;1.63;;
10090;SDS011;5084;51.386;6.778;2023-02-28T09:23:12;2.37;;;2.00;;
10090;SDS011;5084;51.386;6.778;2023-02-28T09:25:45;2.20;;;2.00;;
10090;SDS011;5084;51.386;6.778;2023-02-28T09:28:12;2.17;;;1.60;;
10090;SDS011;5084;51.386;6.778;2023-02-28T09:30:40;1.97;;;1.80;;
10090;SDS011;5084;51.386;6.778;2023-02-28T09:33:06;2.13;;;1.83;;
10090;SDS011;5084;51.386;6.778;2023-02-28T09:35:33;2.63;;;1.90;;
10090;SDS011;5084;51.386;6.778;2023-02-28T09:37:59;3.30;;;1.80;;
10090;SDS011;5084;51.386;6.778;2023-02-28T09:40:27;2.03;;;1.80;;
10090;SDS011;5084;51.386;6.778;2023-02-28T09:42:54;2.27;;;2.03;;
10090;SDS011;5084;51.386;6.778;2023-02-28T09:45:24;3.23;;;1.93;;
10090;SDS011;5084;51.386;6.778;2023-02-28T09:47:53;2.17;;;1.60;;
10090;SDS011;5084;51.386;6.778;2023-02-28T09:50:28;3.50;;;1.83;;
10090;SDS011;5084;51.386;6.778;2023-02-28T09:52:57;4.53;;;1.87;;
10090;SDS011;5084;51.386;6.778;2023-02-28T09:57:50;1.90;;;1.80;;
10090;SDS011;5084;51.386;6.778;2023-02-28T10:00:33;2.63;;;1.87;;
10090;SDS011;5084;51.386;6.778;2023-02-28T10:03:16;2.10;;;1.90;;
10090;SDS011;5084;51.386;6.778;2023-02-28T10:05:50;2.30;;;1.77;;
10090;SDS011;5084;51.386;6.778;2023-02-28T10:08:23;2.17;;;1.77;;
10090;SDS011;5084;51.386;6.778;2023-02-28T10:10:51;1.80;;;1.50;;
10090;SDS011;5084;51.386;6.778;2023-02-28T10:15:47;2.23;;;1.90;;
10090;SDS011;5084;51.386;6.778;2023-02-28T10:18:16;2.63;;;1.70;;
10090;SDS011;5084;51.386;6.778;2023-02-28T10:20:45;2.37;;;1.63;;
10090;SDS011;5084;51.386;6.778;2023-02-28T10:23:17;1.63;;;1.50;;
10090;SDS011;5084;51.386;6.778;2023-02-28T10:25:47;3.03;;;1.93;;
10090;SDS011;5084;51.386;6.778;2023-02-28T10:28:16;1.80;;;1.50;;
10090;SDS011;5084;51.386;6.778;2023-02-28T10:30:46;1.80;;;1.70;;
10090;SDS011;5084;51.386;6.778;2023-02-28T10:33:32;1.83;;;1.60;;
10090;SDS011;5084;51.386;6.778;2023-02-28T10:35:59;1.67;;;1.57;;
10090;SDS011;5084;51.386;6.778;2023-02-28T10:38:35;2.83;;;1.27;;
10090;SDS011;5084;51.386;6.778;2023-02-28T10:41:35;3.57;;;1.63;;
10090;SDS011;5084;51.386;6.778;2023-02-28T10:44:12;1.37;;;1.27;;
10090;SDS011;5084;51.386;6.778;2023-02-28T10:46:39;1.77;;;1.50;;
10090;SDS011;5084;51.386;6.778;2023-02-28T10:49:07;1.50;;;1.40;;
10090;SDS011;5084;51.386;6.778;2023-02-28T10:51:39;1.60;;;1.40;;
10090;SDS011;5084;51.386;6.778;2023-02-28T10:54:05;1.67;;;1.20;;
10090;SDS011;5084;51.386;6.778;2023-02-28T10:56:32;1.70;;;1.50;;
10090;SDS011;5084;51.386;6.778;2023-02-28T10:58:59;1.70;;;1.60;;
10090;SDS011;5084;51.386;6.778;2023-02-28T11:03:57;1.57;;;1.47;;
10090;SDS011;5084;51.386;6.778;2023-02-28T11:06:29;1.77;;;1.50;;
10090;SDS011;5084;51.386;6.778;2023-02-28T11:08:56;1.50;;;1.40;;
10090;SDS011;5084;51.386;6.778;2023-02-28T11:11:24;1.97;;;1.50;;
10090;SDS011;5084;51.386;6.778;2023-02-28T11:13:51;1.30;;;1.20;;
10090;SDS011;5084;51.386;6.778;2023-02-28T11:16:18;1.30;;;1.20;;
10090;SDS011;5084;51.386;6.778;2023-02-28T11:18:49;2.67;;;1.90;;
10090;SDS011;5084;51.386;6.778;2023-02-28T11:21:20;1.40;;;1.30;;
10090;SDS011;5084;51.386;6.778;2023-02-28T11:23:46;1.57;;;1.47;;
10090;SDS011;5084;51.386;6.778;2023-02-28T11:26:14;1.73;;;1.40;;
10090;SDS011;5084;51.386;6.778;2023-02-28T11:28:41;1.77;;;1.50;;
10090;SDS011;5084;51.386;6.778;2023-02-28T11:33:52;1.33;;;1.23;;
10090;SDS011;5084;51.386;6.778;2023-02-28T11:36:20;2.13;;;1.80;;
10090;SDS011;5084;51.386;6.778;2023-02-28T11:38:49;1.47;;;1.37;;
10090;SDS011;5084;51.386;6.778;2023-02-28T11:41:34;1.63;;;1.53;;
10090;SDS011;5084;51.386;6.778;2023-02-28T11:46:37;1.97;;;1.60;;
10090;SDS011;5084;51.386;6.778;2023-02-28T11:51:34;1.50;;;1.40;;
10090;SDS011;5084;51.386;6.778;2023-02-28T11:56:37;1.50;;;1.40;;
10090;SDS011;5084;51.386;6.778;2023-02-28T12:04:27;2.20;;;1.40;;
10090;SDS011;5084;51.386;6.778;2023-02-28T12:12:11;1.93;;;1.70;;
10090;SDS011;5084;51.386;6.778;2023-02-28T12:20:40;1.33;;;1.23;;
10090;SDS011;5084;51.386;6.778;2023-02-28T12:22:46;1.60;;;1.43;;
10090;SDS011;5084;51.386;6.778;2023-02-28T12:27:48;1.50;;;1.40;;
10090;SDS011;5084;51.386;6.778;2023-02-28T12:30:25;1.57;;;1.43;;
10090;SDS011;5084;51.386;6.778;2023-02-28T12:32:54;1.70;;;1.60;;
10090;SDS011;5084;51.386;6.778;2023-02-28T12:35:24;1.60;;;1.50;;
10090;SDS011;5084;51.386;6.778;2023-02-28T12:38:01;1.77;;;1.47;;
10090;SDS011;5084;51.386;6.778;2023-02-28T12:40:41;1.83;;;1.57;;
10090;SDS011;5084;51.386;6.778;2023-02-28T12:43:07;2.00;;;1.57;;
10090;SDS011;5084;51.386;6.778;2023-02-28T12:45:41;1.50;;;1.40;;
10090;SDS011;5084;51.386;6.778;2023-02-28T12:48:10;3.50;;;2.17;;
10090;SDS011;5084;51.386;6.778;2023-02-28T12:50:38;1.80;;;1.50;;
10090;SDS011;5084;51.386;6.778;2023-02-28T12:53:49;1.93;;;1.70;;
10090;SDS011;5084;51.386;6.778;2023-02-28T13:03:45;2.60;;;1.63;;
10090;SDS011;5084;51.386;6.778;2023-02-28T13:09:02;1.77;;;1.50;;
10090;SDS011;5084;51.386;6.778;2023-02-28T13:11:31;1.83;;;1.73;;
10090;SDS011;5084;51.386;6.778;2023-02-28T13:13:58;2.00;;;1.57;;
10090;SDS011;5084;51.386;6.778;2023-02-28T13:16:25;1.80;;;1.70;;
10090;SDS011;5084;51.386;6.778;2023-02-28T13:18:51;2.17;;;2.00;;
10090;SDS011;5084;51.386;6.778;2023-02-28T13:22:01;2.57;;;2.00;;
10090;SDS011;5084;51.386;6.778;2023-02-28T13:24:09;3.07;;;2.07;;
10090;SDS011;5084;51.386;6.778;2023-02-28T13:34:21;1.77;;;1.60;;
10090;SDS011;5084;51.386;6.778;2023-02-28T13:36:47;3.87;;;1.90;;
10090;SDS011;5084;51.386;6.778;2023-02-28T13:42:00;2.27;;;2.07;;
10090;SDS011;5084;51.386;6.778;2023-02-28T13:49:54;3.87;;;1.70;;
10090;SDS011;5084;51.386;6.778;2023-02-28T13:55:31;1.60;;;1.50;;
10090;SDS011;5084;51.386;6.778;2023-02-28T14:06:15;2.37;;;2.07;;
10090;SDS011;5084;51.386;6.778;2023-02-28T14:08:47;2.10;;;1.90;;
10090;SDS011;5084;51.386;6.778;2023-02-28T14:11:24;1.73;;;1.63;;
10090;SDS011;5084;51.386;6.778;2023-02-28T14:13:50;2.27;;;1.90;;
10090;SDS011;5084;51.386;6.778;2023-02-28T14:16:17;4.50;;;1.80;;
10090;SDS011;5084;51.386;6.778;2023-02-28T14:18:59;2.50;;;1.70;;
10090;SDS011;5084;51.386;6.778;2023-02-28T14:21:30;2.83;;;1.87;;
10090;SDS011;5084;51.386;6.778;2023-02-28T14:29:30;2.20;;;2.00;;
10090;SDS011;5084;51.386;6.778;2023-02-28T14:32:03;1.80;;;1.60;;
10090;SDS011;5084;51.386;6.778;2023-02-28T14:34:52;1.97;;;1.70;;
10090;SDS011;5084;51.386;6.778;2023-02-28T14:37:20;1.70;;;1.60;;
10090;SDS011;5084;51.386;6.778;2023-02-28T14:39:49;2.10;;;1.90;;
10090;SDS011;5084;51.386;6.778;2023-02-28T14:42:29;3.17;;;2.10;;
10090;SDS011;5084;51.386;6.778;2023-02-28T14:44:55;2.50;;;1.87;;
10090;SDS011;5084;51.386;6.778;2023-02-28T14:47:21;2.20;;;2.00;;
10090;SDS011;5084;51.386;6.778;2023-02-28T14:49:49;2.43;;;2.23;;
10090;SDS011;5084;51.386;6.778;2023-02-28T14:52:17;3.47;;;2.10;;
10090;SDS011;5084;51.386;6.778;2023-02-28T14:54:44;2.40;;;2.20;;
10090;SDS011;5084;51.386;6.778;2023-02-28T14:57:21;3.47;;;2.30;;
10090;SDS011;5084;51.386;6.778;2023-02-28T14:59:56;2.87;;;2.67;;
10090;SDS011;5084;51.386;6.778;2023-02-28T15:02:23;2.00;;;1.90;;
10090;SDS011;5084;51.386;6.778;2023-02-28T15:04:56;1.97;;;1.80;;
10090;SDS011;5084;51.386;6.778;2023-02-28T15:07:23;2.83;;;2.50;;
10090;SDS011;5084;51.386;6.778;2023-02-28T15:12:37;2.30;;;2.10;;
10090;SDS011;5084;51.386;6.778;2023-02-28T15:15:05;2.27;;;2.07;;
10090;SDS011;5084;51.386;6.778;2023-02-28T15:17:32;2.37;;;2.20;;
10090;SDS011;5084;51.386;6.778;2023-02-28T15:19:58;4.20;;;2.20;;
10090;SDS011;5084;51.386;6.778;2023-02-28T15:22:29;2.57;;;2.07;;
10090;SDS011;5084;51.386;6.778;2023-02-28T15:24:57;2.20;;;1.70;;
10090;SDS011;5084;51.386;6.778;2023-02-28T15:27:30;2.53;;;2.33;;
10090;SDS011;5084;51.386;6.778;2023-02-28T15:30:39;2.40;;;2.10;;
10090;SDS011;5084;51.386;6.778;2023-02-28T15:33:01;2.40;;;2.20;;
10090;SDS011;5084;51.386;6.778;2023-02-28T15:35:28;2.50;;;2.03;;
10090;SDS011;5084;51.386;6.778;2023-02-28T15:37:56;2.53;;;2.10;;
10090;SDS011;5084;51.386;6.778;2023-02-28T15:40:29;2.07;;;1.87;;
10090;SDS011;5084;51.386;6.778;2023-02-28T15:43:06;1.97;;;1.77;;
10090;SDS011;5084;51.386;6.778;2023-02-28T15:48:02;2.20;;;2.00;;
10090;SDS011;5084;51.386;6.778;2023-02-28T15:50:28;1.90;;;1.80;;
10090;SDS011;5084;51.386;6.778;2023-02-28T15:52:55;2.10;;;1.90;;
10090;SDS011;5084;51.386;6.778;2023-02-28T15:55:22;2.27;;;2.07;;
10090;SDS011;5084;51.386;6.778;2023-02-28T15:57:50;2.50;;;2.23;;
10090;SDS011;5084;51.386;6.778;2023-02-28T16:00:26;2.27;;;2.07;;
10090;SDS011;5084;51.386;6.778;2023-02-28T16:02:53;3.50;;;2.20;;
10090;SDS011;5084;51.386;6.778;2023-02-28T16:05:26;2.00;;;1.80;;
10090;SDS011;5084;51.386;6.778;2023-02-28T16:07:53;2.20;;;2.00;;
10090;SDS011;5084;51.386;6.778;2023-02-28T16:10:20;2.27;;;2.07;;
10090;SDS011;5084;51.386;6.778;2023-02-28T16:12:46;3.43;;;2.33;;
10090;SDS011;5084;51.386;6.778;2023-02-28T16:15:19;3.37;;;2.30;;
10090;SDS011;5084;51.386;6.778;2023-02-28T16:17:46;2.70;;;2.50;;
10090;SDS011;5084;51.386;6.778;2023-02-28T16:20:13;2.23;;;2.03;;
10090;SDS011;5084;51.386;6.778;2023-02-28T16:22:40;3.67;;;2.30;;
10090;SDS011;5084;51.386;6.778;2023-02-28T16:25:07;4.30;;;2.60;;
10090;SDS011;5084;51.386;6.778;2023-02-28T16:27:35;2.70;;;2.50;;
10090;SDS011;5084;51.386;6.778;2023-02-28T16:30:02;2.50;;;2.30;;
10090;SDS011;5084;51.386;6.778;2023-02-28T16:32:29;2.40;;;2.20;;
10090;SDS011;5084;51.386;6.778;2023-02-28T16:34:55;2.07;;;1.87;;
10090;SDS011;5084;51.386;6.778;2023-02-28T16:37:21;2.27;;;1.90;;
10090;SDS011;5084;51.386;6.778;2023-02-28T16:39:47;2.50;;;2.30;;
10090;SDS011;5084;51.386;6.778;2023-02-28T16:42:21;2.50;;;2.30;;
10090;SDS011;5084;51.386;6.778;2023-02-28T16:44:48;2.23;;;2.03;;
10090;SDS011;5084;51.386;6.778;2023-02-28T16:47:14;2.90;;;2.30;;
10090;SDS011;5084;51.386;6.778;2023-02-28T16:49:40;3.27;;;2.27;;
10090;SDS011;5084;51.386;6.778;2023-02-28T16:52:08;3.00;;;2.30;;
10090;SDS011;5084;51.386;6.778;2023-02-28T16:54:34;3.27;;;2.60;;
10090;SDS011;5084;51.386;6.778;2023-02-28T16:57:00;2.40;;;2.20;;
10090;SDS011;5084;51.386;6.778;2023-02-28T16:59:27;2.83;;;2.30;;
10090;SDS011;5084;51.386;6.778;2023-02-28T17:01:54;3.47;;;2.40;;
10090;SDS011;5084;51.386;6.778;2023-02-28T17:04:22;2.80;;;2.27;;